TimeMDT,TemperatureF,Dew PointF,Humidity,Sea Level PressureIn,VisibilityMPH,Wind Direction,Wind SpeedMPH,Gust SpeedMPH,PrecipitationIn,Events,Conditions,WindDirDegrees,DateUTC
12:15 AM,48.2,21.2,34,30.02,10.0,East,6.9,-,N/A,,Clear,100,2013-06-20 06:15:00
12:35 AM,46.4,21.2,37,30.02,10.0,East,8.1,-,N/A,,Clear,90,2013-06-20 06:35:00
12:55 AM,46.4,21.2,37,30.03,10.0,ENE,4.6,-,N/A,,Clear,70,2013-06-20 06:55:00
1:15 AM,42.8,23.0,46,30.03,10.0,East,3.5,-,N/A,,Clear,100,2013-06-20 07:15:00
1:35 AM,41.0,23.0,49,30.02,10.0,Calm,Calm,-,N/A,,Clear,0,2013-06-20 07:35:00
1:55 AM,37.4,28.4,70,30.02,10.0,South,3.5,-,N/A,,Clear,180,2013-06-20 07:55:00
2:15 AM,42.8,21.2,42,30.03,10.0,South,4.6,-,N/A,,Clear,190,2013-06-20 08:15:00
2:35 AM,37.4,26.6,65,30.03,10.0,SE,4.6,-,N/A,,Clear,130,2013-06-20 08:35:00
2:55 AM,35.6,26.6,70,30.03,10.0,ESE,3.5,-,N/A,,Clear,120,2013-06-20 08:55:00
3:15 AM,39.2,24.8,56,30.05,10.0,South,5.8,-,N/A,,Clear,180,2013-06-20 09:15:00
3:35 AM,41.0,23.0,49,30.05,10.0,SSW,3.5,-,N/A,,Clear,200,2013-06-20 09:35:00
3:55 AM,37.4,26.6,65,30.05,10.0,Calm,Calm,-,N/A,,Clear,0,2013-06-20 09:55:00
4:15 AM,35.6,26.6,70,30.06,10.0,Calm,Calm,-,N/A,,Clear,0,2013-06-20 10:15:00
4:35 AM,33.8,26.6,75,30.05,10.0,Calm,Calm,-,N/A,,Clear,0,2013-06-20 10:35:00
4:55 AM,33.8,28.4,81,30.06,10.0,Calm,Calm,-,N/A,,Clear,0,2013-06-20 10:55:00
5:15 AM,35.6,26.6,70,30.06,10.0,Calm,Calm,-,N/A,,Clear,0,2013-06-20 11:15:00
5:35 AM,32.0,28.4,87,30.07,10.0,Calm,Calm,-,N/A,,Clear,0,2013-06-20 11:35:00
5:55 AM,33.8,28.4,81,30.07,10.0,Calm,Calm,-,N/A,,Clear,0,2013-06-20 11:55:00
6:15 AM,32.0,28.4,87,30.08,10.0,Calm,Calm,-,N/A,,Clear,0,2013-06-20 12:15:00
6:35 AM,33.8,26.6,75,30.08,10.0,Calm,Calm,-,N/A,,Clear,0,2013-06-20 12:35:00
6:55 AM,37.4,28.4,70,30.09,10.0,Calm,Calm,-,N/A,,Clear,0,2013-06-20 12:55:00
7:15 AM,37.4,28.4,70,30.09,10.0,Calm,Calm,-,N/A,,Clear,0,2013-06-20 13:15:00
7:35 AM,39.2,30.2,70,30.09,10.0,Calm,Calm,-,N/A,,Clear,0,2013-06-20 13:35:00
7:55 AM,42.8,28.4,57,30.10,10.0,Calm,Calm,-,N/A,,Clear,0,2013-06-20 13:55:00
8:15 AM,44.6,26.6,49,30.10,10.0,Calm,Calm,-,N/A,,Clear,0,2013-06-20 14:15:00
8:35 AM,46.4,26.6,46,30.10,10.0,NW,3.5,-,N/A,,Clear,310,2013-06-20 14:35:00
8:55 AM,46.4,26.6,46,30.09,10.0,Calm,Calm,-,N/A,,Clear,0,2013-06-20 14:55:00
9:15 AM,48.2,26.6,43,30.09,10.0,Calm,Calm,-,N/A,,Clear,0,2013-06-20 15:15:00
9:35 AM,50.0,23.0,35,30.08,10.0,Calm,Calm,-,N/A,,Clear,0,2013-06-20 15:35:00
9:55 AM,53.6,24.8,33,30.07,10.0,Calm,Calm,-,N/A,,Clear,0,2013-06-20 15:55:00
10:15 AM,55.4,24.8,31,30.06,10.0,Calm,Calm,-,N/A,,Clear,0,2013-06-20 16:15:00
10:35 AM,55.4,23.0,29,30.05,10.0,Calm,Calm,-,N/A,,Clear,0,2013-06-20 16:35:00
10:55 AM,59.0,23.0,25,30.04,10.0,SE,4.6,-,N/A,,Clear,140,2013-06-20 16:55:00
11:15 AM,59.0,23.0,25,30.03,10.0,Calm,Calm,-,N/A,,Clear,0,2013-06-20 17:15:00
11:35 AM,62.6,23.0,22,30.02,10.0,Calm,Calm,-,N/A,,Clear,0,2013-06-20 17:35:00
11:55 AM,64.4,21.2,19,30.02,10.0,NNW,3.5,-,N/A,,Clear,330,2013-06-20 17:55:00
12:15 PM,64.4,19.4,18,30.01,10.0,NE,3.5,-,N/A,,Clear,50,2013-06-20 18:15:00
12:35 PM,68.0,19.4,16,30.00,10.0,NNW,3.5,-,N/A,,Clear,340,2013-06-20 18:35:00
12:55 PM,69.8,17.6,14,29.99,10.0,NW,3.5,-,N/A,,Clear,320,2013-06-20 18:55:00
1:15 PM,69.8,21.2,16,29.98,10.0,WSW,5.8,-,N/A,,Clear,240,2013-06-20 19:15:00
1:35 PM,71.6,21.2,15,29.98,10.0,Calm,Calm,-,N/A,,Clear,0,2013-06-20 19:35:00
1:55 PM,73.4,23.0,15,29.98,10.0,WSW,6.9,-,N/A,,Clear,240,2013-06-20 19:55:00
2:15 PM,73.4,26.6,18,29.97,10.0,SW,13.8,-,N/A,,Clear,230,2013-06-20 20:15:00
2:35 PM,71.6,26.6,19,29.97,10.0,WSW,18.4,-,N/A,,Clear,240,2013-06-20 20:35:00
2:55 PM,71.6,23.0,16,29.97,10.0,SW,23.0,28.8,N/A,,Clear,230,2013-06-20 20:55:00
3:15 PM,73.4,23.0,15,29.97,10.0,SW,21.9,28.8,N/A,,Clear,230,2013-06-20 21:15:00
3:35 PM,73.4,23.0,15,29.96,10.0,WSW,24.2,31.1,N/A,,Clear,240,2013-06-20 21:35:00
3:55 PM,73.4,23.0,15,29.96,10.0,SW,19.6,26.5,N/A,,Clear,230,2013-06-20 21:55:00
4:15 PM,75.2,23.0,14,29.96,10.0,WSW,20.7,26.5,N/A,,Clear,240,2013-06-20 22:15:00
4:35 PM,73.4,23.0,15,29.96,10.0,WSW,20.7,25.3,N/A,,Clear,240,2013-06-20 22:35:00
4:55 PM,75.2,23.0,14,29.96,10.0,WSW,18.4,24.2,N/A,,Clear,250,2013-06-20 22:55:00
5:15 PM,77.0,23.0,13,29.96,10.0,WSW,16.1,19.6,N/A,,Clear,250,2013-06-20 23:15:00
5:35 PM,77.0,23.0,13,29.96,10.0,West,15.0,-,N/A,,Clear,260,2013-06-20 23:35:00
5:55 PM,75.2,21.2,13,29.96,10.0,West,13.8,18.4,N/A,,Clear,260,2013-06-20 23:55:00
6:15 PM,77.0,23.0,13,29.96,10.0,WSW,11.5,-,N/A,,Clear,250,2013-06-21 00:15:00
6:35 PM,75.2,23.0,14,29.95,10.0,WSW,12.7,18.4,N/A,,Clear,250,2013-06-21 00:35:00
6:55 PM,73.4,23.0,15,29.95,10.0,WSW,9.2,-,N/A,,Clear,240,2013-06-21 00:55:00
7:15 PM,73.4,21.2,14,29.95,10.0,WSW,13.8,-,N/A,,Clear,240,2013-06-21 01:15:00
7:35 PM,71.6,24.8,17,29.95,10.0,SW,10.4,-,N/A,,Clear,220,2013-06-21 01:35:00
7:55 PM,69.8,24.8,18,29.96,10.0,SW,10.4,-,N/A,,Clear,230,2013-06-21 01:55:00
8:15 PM,69.8,30.2,23,29.96,10.0,WSW,5.8,-,N/A,,Clear,240,2013-06-21 02:15:00
8:35 PM,66.2,28.4,24,29.95,10.0,West,3.5,-,N/A,,Clear,280,2013-06-21 02:35:00
8:55 PM,60.8,32.0,34,29.96,10.0,NNW,3.5,-,N/A,,Clear,330,2013-06-21 02:55:00
9:15 PM,59.0,30.2,34,29.96,10.0,Calm,Calm,-,N/A,,Clear,0,2013-06-21 03:15:00
9:35 PM,55.4,32.0,41,29.96,7.0,Calm,Calm,-,N/A,,Clear,0,2013-06-21 03:35:00
9:55 PM,53.6,30.2,41,29.96,10.0,Calm,Calm,-,N/A,,Clear,0,2013-06-21 03:55:00
10:15 PM,50.0,33.8,54,29.96,10.0,Calm,Calm,-,N/A,,Clear,0,2013-06-21 04:15:00
10:35 PM,51.8,32.0,47,29.97,10.0,Calm,Calm,-,N/A,,Clear,0,2013-06-21 04:35:00
10:55 PM,51.8,32.0,47,29.97,10.0,SW,4.6,-,N/A,,Clear,230,2013-06-21 04:55:00
11:15 PM,46.4,32.0,57,29.98,10.0,SE,3.5,-,N/A,,Clear,130,2013-06-21 05:15:00
11:35 PM,44.6,33.8,66,29.98,10.0,SSE,3.5,-,N/A,,Clear,150,2013-06-21 05:35:00
11:55 PM,44.6,33.8,66,29.98,10.0,ESE,3.5,-,N/A,,Clear,120,2013-06-21 05:55:00